createdAt,value
2019-01-24T00:00:00.608Z,85.80
2019-01-24T00:02:29.263Z,85.90
2019-01-24T00:04:57.851Z,85.80
2019-01-24T00:07:26.414Z,86.10
2019-01-24T00:09:54.994Z,85.70
2019-01-24T00:12:23.570Z,85.90
2019-01-24T00:14:52.154Z,85.70
2019-01-24T00:17:21.342Z,85.60
2019-01-24T00:19:49.926Z,85.70
2019-01-24T00:22:18.498Z,85.80
2019-01-24T00:24:47.102Z,85.90
2019-01-24T00:27:16.260Z,85.80
2019-01-24T00:29:44.982Z,85.80
2019-01-24T00:32:13.589Z,85.90
2019-01-24T00:34:42.266Z,85.80
2019-01-24T00:37:10.842Z,85.80
2019-01-24T00:39:41.044Z,85.50
2019-01-24T00:42:09.718Z,85.40
2019-01-24T00:44:38.318Z,84.60
2019-01-24T00:47:06.982Z,84.70
2019-01-24T00:49:35.572Z,84.40
2019-01-24T00:52:04.246Z,84.70
2019-01-24T00:54:32.857Z,84.70
2019-01-24T00:57:01.434Z,84.60
2019-01-24T00:59:32.327Z,84.60
2019-01-24T01:02:01.521Z,84.70
2019-01-24T01:04:30.495Z,84.90
2019-01-24T01:06:59.069Z,84.90
2019-01-24T01:09:27.632Z,85.10
2019-01-24T01:11:56.249Z,85.30
2019-01-24T01:14:24.848Z,85.20
2019-01-24T01:16:53.442Z,85.40
2019-01-24T01:19:22.026Z,85.50
2019-01-24T01:21:50.584Z,85.40
2019-01-24T01:24:19.166Z,85.40
2019-01-24T01:26:47.745Z,85.30
2019-01-24T01:29:16.345Z,85.30
2019-01-24T01:31:44.915Z,85.30
2019-01-24T01:34:13.581Z,85.00
2019-01-24T01:36:42.163Z,85.00
2019-01-24T01:39:10.758Z,84.90
2019-01-24T01:41:39.370Z,84.90
2019-01-24T01:44:07.930Z,85.00
2019-01-24T01:46:37.025Z,85.00
2019-01-24T01:49:05.606Z,84.50
2019-01-24T01:51:34.217Z,84.60
2019-01-24T01:54:02.786Z,84.60
2019-01-24T01:56:31.356Z,84.80
2019-01-24T01:58:59.946Z,84.80
2019-01-24T02:01:28.627Z,84.90
2019-01-24T02:03:57.190Z,85.00
2019-01-24T02:06:25.784Z,84.80
2019-01-24T02:08:54.382Z,84.90
2019-01-24T02:11:22.970Z,85.00
2019-01-24T02:13:51.550Z,85.10
2019-01-24T02:16:20.121Z,84.60
2019-01-24T02:18:48.699Z,84.60
2019-01-24T02:21:17.402Z,84.90
2019-01-24T02:23:45.977Z,84.90
2019-01-24T02:26:14.570Z,85.00
2019-01-24T02:28:43.147Z,84.70
2019-01-24T02:31:12.034Z,84.50
2019-01-24T02:33:40.612Z,84.80
2019-01-24T02:36:09.205Z,84.80
2019-01-24T02:38:37.797Z,85.20
2019-01-24T02:41:06.390Z,84.80
2019-01-24T02:43:34.957Z,85.20
2019-01-24T02:46:03.612Z,85.40
2019-01-24T02:48:32.216Z,85.60
2019-01-24T02:51:00.786Z,85.50
2019-01-24T02:53:29.382Z,85.50
2019-01-24T02:55:57.959Z,85.40
2019-01-24T02:58:26.556Z,85.50
2019-01-24T03:00:55.133Z,85.40
2019-01-24T03:03:24.687Z,85.50
2019-01-24T03:05:53.248Z,85.70
2019-01-24T03:08:21.828Z,85.50
2019-01-24T03:10:50.430Z,85.50
2019-01-24T03:13:19.032Z,85.50
2019-01-24T03:15:47.594Z,85.50
2019-01-24T03:18:16.177Z,85.40
2019-01-24T03:20:45.238Z,85.40
2019-01-24T03:23:13.838Z,85.70
2019-01-24T03:25:42.408Z,85.50
2019-01-24T03:28:11.023Z,85.40
2019-01-24T03:30:39.585Z,85.50
2019-01-24T03:33:08.183Z,85.60
2019-01-24T03:35:36.769Z,85.70
2019-01-24T03:38:05.346Z,85.70
2019-01-24T03:40:33.931Z,85.70
2019-01-24T03:43:02.534Z,85.70
2019-01-24T03:45:31.117Z,85.70
2019-01-24T03:47:59.702Z,86.00
2019-01-24T03:50:28.289Z,86.10
2019-01-24T03:52:56.867Z,85.80
2019-01-24T03:55:25.469Z,85.60
2019-01-24T03:57:54.047Z,85.80
2019-01-24T04:00:24.199Z,85.90
2019-01-24T04:02:52.777Z,85.90
2019-01-24T04:05:23.138Z,85.90
2019-01-24T04:07:51.713Z,85.90
2019-01-24T04:10:21.181Z,85.90
2019-01-24T04:12:49.884Z,85.60
2019-01-24T04:15:22.893Z,85.70
2019-01-24T04:17:51.474Z,85.60
2019-01-24T04:20:20.106Z,85.80
2019-01-24T04:22:48.673Z,85.90
2019-01-24T04:25:17.243Z,85.70
2019-01-24T04:27:45.839Z,85.80
2019-01-24T04:30:16.518Z,86.10
2019-01-24T04:32:46.156Z,85.60
2019-01-24T04:35:19.769Z,85.90
2019-01-24T04:37:45.217Z,86.00
2019-01-24T04:40:15.259Z,85.80
2019-01-24T04:42:43.853Z,85.90
2019-01-24T04:45:13.755Z,85.90
2019-01-24T04:47:42.390Z,85.50
2019-01-24T04:50:12.802Z,85.70
2019-01-24T04:52:41.389Z,85.60
2019-01-24T04:55:11.546Z,85.40
2019-01-24T04:57:40.114Z,85.40
2019-01-24T05:00:18.930Z,85.40
2019-01-24T05:02:47.516Z,85.30
2019-01-24T05:05:16.099Z,85.30
2019-01-24T05:07:44.690Z,85.50
2019-01-24T05:10:13.291Z,85.30
2019-01-24T05:12:41.934Z,85.30
2019-01-24T05:15:10.525Z,85.10
2019-01-24T05:17:39.093Z,85.30
2019-01-24T05:20:08.694Z,85.30
2019-01-24T05:22:37.265Z,85.30
2019-01-24T05:25:07.700Z,85.20
2019-01-24T05:27:36.268Z,85.30
2019-01-24T05:30:07.622Z,85.10
2019-01-24T05:32:36.278Z,85.10
2019-01-24T05:35:05.215Z,85.00
2019-01-24T05:37:33.859Z,85.10
2019-01-24T05:40:02.434Z,85.10
2019-01-24T05:42:32.313Z,85.10
2019-01-24T05:45:00.914Z,84.80
2019-01-24T05:47:29.485Z,84.80
2019-01-24T05:49:58.071Z,85.10
2019-01-24T05:52:26.648Z,85.20
2019-01-24T05:54:55.250Z,85.20
2019-01-24T05:57:23.845Z,85.10
2019-01-24T05:59:53.349Z,85.10
2019-01-24T06:02:21.925Z,84.80
2019-01-24T06:04:50.522Z,84.90
2019-01-24T06:07:19.101Z,85.20
2019-01-24T06:09:47.676Z,85.50
2019-01-24T06:12:16.254Z,85.00
2019-01-24T06:14:44.866Z,85.30
2019-01-24T06:17:13.452Z,85.60
2019-01-24T06:19:42.089Z,85.70
2019-01-24T06:22:10.691Z,85.60
2019-01-24T06:24:39.281Z,85.60
2019-01-24T06:27:07.866Z,85.60
2019-01-24T06:29:36.437Z,85.80
2019-01-24T06:32:05.039Z,85.30
2019-01-24T06:34:33.611Z,85.40
2019-01-24T06:37:02.212Z,85.30
2019-01-24T06:39:30.781Z,85.40
2019-01-24T06:41:59.374Z,85.30
2019-01-24T06:44:29.665Z,85.50
2019-01-24T06:46:58.259Z,85.30
2019-01-24T06:49:26.837Z,85.50
2019-01-24T06:51:55.422Z,85.30
2019-01-24T06:54:24.019Z,85.10
2019-01-24T06:56:52.612Z,85.50
2019-01-24T06:59:21.196Z,85.50
2019-01-24T07:01:49.773Z,85.70
2019-01-24T07:04:18.357Z,85.90
2019-01-24T07:06:46.936Z,85.40
2019-01-24T07:09:15.522Z,85.40
2019-01-24T07:11:44.104Z,85.40
2019-01-24T07:14:12.707Z,85.40
2019-01-24T07:16:41.286Z,85.60
2019-01-24T07:19:09.869Z,85.10
2019-01-24T07:21:38.470Z,85.40
2019-01-24T07:24:07.044Z,85.50
2019-01-24T07:26:35.626Z,86.00
2019-01-24T07:29:05.049Z,86.10
2019-01-24T07:31:33.634Z,86.30
2019-01-24T07:34:02.217Z,85.90
2019-01-24T07:36:30.799Z,85.70
2019-01-24T07:38:59.379Z,86.50
2019-01-24T07:41:27.953Z,85.20
2019-01-24T07:43:56.548Z,84.60
2019-01-24T07:46:25.117Z,84.80
2019-01-24T07:48:53.711Z,84.80
2019-01-24T07:51:23.097Z,84.90
2019-01-24T07:53:51.733Z,84.90
2019-01-24T07:56:20.317Z,84.90
2019-01-24T07:58:48.921Z,85.10
2019-01-24T08:01:17.502Z,84.90
2019-01-24T08:03:46.072Z,85.00
2019-01-24T08:06:14.650Z,85.10
2019-01-24T08:08:44.193Z,85.10
2019-01-24T08:11:12.790Z,84.70
2019-01-24T08:13:42.100Z,84.20
2019-01-24T08:16:10.687Z,83.90
2019-01-24T08:18:39.258Z,84.50
2019-01-24T08:21:07.837Z,84.80
2019-01-24T08:23:36.414Z,86.00
2019-01-24T08:26:05.005Z,86.90
2019-01-24T08:28:33.594Z,87.80
2019-01-24T08:31:02.190Z,88.00
2019-01-24T08:33:30.774Z,87.70
2019-01-24T08:35:59.372Z,87.30
2019-01-24T08:38:27.943Z,86.30
2019-01-24T08:40:56.530Z,86.40
2019-01-24T08:43:25.209Z,86.40
2019-01-24T08:45:53.801Z,87.20
2019-01-24T08:48:22.370Z,87.90
2019-01-24T08:50:50.966Z,87.90
2019-01-24T08:53:19.533Z,88.10
2019-01-24T08:55:48.144Z,88.10
2019-01-24T08:58:16.713Z,87.70
2019-01-24T09:00:45.325Z,86.70
2019-01-24T09:03:13.906Z,87.00
2019-01-24T09:05:42.507Z,86.70
2019-01-24T09:08:11.082Z,86.20
2019-01-24T09:10:39.992Z,87.50
2019-01-24T09:13:09.089Z,89.20
2019-01-24T09:15:37.984Z,90.70
2019-01-24T09:18:07.494Z,90.20
2019-01-24T09:20:36.350Z,90.30
2019-01-24T09:23:05.897Z,90.80
2019-01-24T09:25:35.134Z,91.30
2019-01-24T09:28:03.714Z,91.00
2019-01-24T09:30:32.314Z,91.00
2019-01-24T09:33:00.895Z,91.00
2019-01-24T09:35:29.478Z,91.00
2019-01-24T09:37:58.062Z,91.00
2019-01-24T09:40:26.657Z,90.90
2019-01-24T09:42:55.242Z,90.80
2019-01-24T09:45:25.377Z,90.70
2019-01-24T09:47:55.108Z,90.50
2019-01-24T09:50:24.235Z,90.50
2019-01-24T09:52:52.841Z,90.20
2019-01-24T09:55:21.430Z,90.00
2019-01-24T09:57:50.109Z,89.50
2019-01-24T10:00:32.971Z,89.90
2019-01-24T10:03:01.663Z,89.60
2019-01-24T10:05:30.256Z,89.20
2019-01-24T10:07:58.841Z,88.60
2019-01-24T10:10:27.782Z,88.30
2019-01-24T10:12:56.921Z,89.10
2019-01-24T10:15:25.509Z,88.10
2019-01-24T10:17:54.057Z,88.30
2019-01-24T10:20:23.790Z,87.60
2019-01-24T10:22:52.361Z,87.90
2019-01-24T10:25:37.650Z,89.70
2019-01-24T10:28:06.449Z,89.50
2019-01-24T10:30:35.383Z,89.80
2019-01-24T10:33:03.989Z,89.00
2019-01-24T10:35:33.165Z,89.60
2019-01-24T10:38:01.758Z,89.20
2019-01-24T10:40:31.502Z,87.80
2019-01-24T10:43:00.100Z,86.70
2019-01-24T10:45:28.662Z,87.00
2019-01-24T10:47:57.251Z,86.10
2019-01-24T10:50:26.273Z,86.90
2019-01-24T10:52:54.861Z,86.80
2019-01-24T10:55:25.193Z,86.20
2019-01-24T10:57:55.088Z,87.30
2019-01-24T11:00:32.558Z,87.50
2019-01-24T11:03:02.292Z,87.60
2019-01-24T11:05:30.944Z,89.00
2019-01-24T11:08:00.282Z,88.90
2019-01-24T11:10:28.863Z,89.80
2019-01-24T11:12:57.468Z,89.30
2019-01-24T11:15:26.053Z,88.70
2019-01-24T11:17:54.642Z,89.50
2019-01-24T11:20:23.238Z,90.00
2019-01-24T11:22:51.846Z,90.30
2019-01-24T11:25:21.484Z,90.10
2019-01-24T11:27:50.062Z,90.60
2019-01-24T11:30:22.230Z,90.50
2019-01-24T11:32:50.906Z,90.70
2019-01-24T11:35:20.332Z,90.20
2019-01-24T11:37:48.913Z,90.20
2019-01-24T11:40:17.841Z,90.50
2019-01-24T11:42:46.445Z,90.60
2019-01-24T11:45:15.894Z,90.10
2019-01-24T11:47:44.482Z,89.10
2019-01-24T11:50:15.330Z,90.30
2019-01-24T11:52:43.928Z,90.00
2019-01-24T11:55:13.506Z,90.00
2019-01-24T11:57:42.132Z,90.00
2019-01-24T12:00:22.734Z,89.90
2019-01-24T12:02:51.311Z,90.10
2019-01-24T12:05:19.884Z,88.30
2019-01-24T12:07:50.062Z,89.70
2019-01-24T12:10:20.480Z,88.50
2019-01-24T12:12:49.131Z,89.20
2019-01-24T12:15:19.083Z,87.80
2019-01-24T12:17:47.652Z,88.30
2019-01-24T12:20:20.762Z,89.00
2019-01-24T12:22:49.345Z,88.60
2019-01-24T12:25:18.009Z,88.10
2019-01-24T12:27:46.580Z,88.50
2019-01-24T12:30:24.306Z,87.90
2019-01-24T12:32:52.885Z,87.20
2019-01-24T12:35:21.485Z,87.40
2019-01-24T12:37:50.057Z,87.90
2019-01-24T12:40:18.654Z,87.90
2019-01-24T12:42:47.226Z,85.90
2019-01-24T12:45:18.482Z,85.30
2019-01-24T12:47:47.091Z,86.10
2019-01-24T12:50:16.438Z,86.00
2019-01-24T12:52:45.058Z,85.90
2019-01-24T12:55:13.752Z,85.10
2019-01-24T12:57:42.330Z,85.50
2019-01-24T13:00:16.798Z,86.60
2019-01-24T13:02:45.388Z,87.10
2019-01-24T13:05:13.996Z,86.80
2019-01-24T13:07:42.553Z,87.00
2019-01-24T13:10:13.427Z,86.80
2019-01-24T13:12:42.016Z,85.10
2019-01-24T13:15:10.779Z,85.00
2019-01-24T13:17:40.217Z,85.80
2019-01-24T13:20:10.842Z,86.00
2019-01-24T13:22:39.594Z,85.80
2019-01-24T13:25:11.490Z,85.50
2019-01-24T13:27:40.094Z,84.90
2019-01-24T13:30:12.334Z,83.40
2019-01-24T13:32:42.548Z,82.80
2019-01-24T13:35:11.310Z,80.70
2019-01-24T13:37:42.315Z,79.30
2019-01-24T13:40:12.996Z,79.60
2019-01-24T13:42:41.636Z,79.60
2019-01-24T13:45:12.804Z,79.00
2019-01-24T13:47:41.828Z,79.20
2019-01-24T13:50:12.791Z,78.70
2019-01-24T13:52:41.389Z,78.80
2019-01-24T13:55:10.098Z,78.70
2019-01-24T13:57:38.767Z,78.80
2019-01-24T14:00:29.716Z,78.30
2019-01-24T14:03:02.113Z,78.40
2019-01-24T14:05:30.776Z,78.40
2019-01-24T14:07:59.451Z,78.20
2019-01-24T14:10:28.074Z,77.70
2019-01-24T14:12:56.718Z,77.40
2019-01-24T14:15:25.436Z,76.70
2019-01-24T14:17:54.168Z,76.60
2019-01-24T14:20:23.374Z,76.80
2019-01-24T14:22:52.873Z,77.30
2019-01-24T14:25:22.750Z,77.50
2019-01-24T14:27:52.830Z,77.20
2019-01-24T14:30:22.984Z,77.00
2019-01-24T14:32:51.937Z,76.60
2019-01-24T14:35:21.113Z,77.00
2019-01-24T14:37:50.096Z,77.20
2019-01-24T14:40:18.944Z,77.10
2019-01-24T14:42:48.616Z,77.10
2019-01-24T14:45:19.825Z,77.40
2019-01-24T14:47:49.701Z,77.50
2019-01-24T14:50:22.911Z,77.60
2019-01-24T14:52:51.499Z,78.40
2019-01-24T14:55:20.078Z,78.00
2019-01-24T14:57:48.780Z,78.40
2019-01-24T15:00:29.259Z,78.80
2019-01-24T15:02:57.830Z,80.00
2019-01-24T15:05:26.418Z,79.40
2019-01-24T15:07:54.990Z,79.00
2019-01-24T15:10:23.666Z,79.20
2019-01-24T15:12:52.266Z,79.40
2019-01-24T15:15:20.980Z,79.80
2019-01-24T15:17:50.426Z,79.80
2019-01-24T15:20:19.142Z,80.60
2019-01-24T15:22:47.727Z,80.30
2019-01-24T15:25:16.316Z,80.60
2019-01-24T15:27:44.911Z,80.80
2019-01-24T15:30:16.479Z,80.90
2019-01-24T15:32:46.218Z,80.90
2019-01-24T15:35:15.831Z,80.90
2019-01-24T15:37:45.340Z,80.70
2019-01-24T15:40:16.736Z,80.90
2019-01-24T15:42:45.306Z,80.80
2019-01-24T15:45:14.104Z,80.80
2019-01-24T15:47:42.673Z,81.00
2019-01-24T15:50:12.310Z,81.10
2019-01-24T15:52:40.888Z,80.90
2019-01-24T15:55:09.578Z,81.00
2019-01-24T15:57:38.197Z,81.10
2019-01-24T16:00:11.138Z,81.10
2019-01-24T16:02:39.691Z,80.70
2019-01-24T16:05:09.502Z,80.80
2019-01-24T16:07:38.075Z,80.70
2019-01-24T16:10:08.507Z,80.60
2019-01-24T16:12:37.113Z,80.70
2019-01-24T16:15:07.766Z,80.80
2019-01-24T16:17:36.330Z,81.00
2019-01-24T16:20:06.707Z,81.00
2019-01-24T16:22:35.346Z,81.20
2019-01-24T16:25:04.359Z,81.50
2019-01-24T16:27:32.987Z,82.10
2019-01-24T16:30:01.567Z,82.70
2019-01-24T16:32:32.238Z,82.70
2019-01-24T16:35:00.806Z,82.60
2019-01-24T16:37:29.451Z,82.80
2019-01-24T16:39:58.031Z,82.70
2019-01-24T16:42:26.601Z,82.00
2019-01-24T16:44:55.177Z,82.00
2019-01-24T16:47:24.015Z,82.00
2019-01-24T16:49:52.609Z,82.00
2019-01-24T16:52:21.186Z,81.90
2019-01-24T16:54:49.769Z,81.40
2019-01-24T16:57:18.353Z,81.30
2019-01-24T16:59:46.941Z,81.00
2019-01-24T17:02:15.530Z,81.00
2019-01-24T17:04:44.118Z,81.00
2019-01-24T17:07:12.714Z,80.30
2019-01-24T17:09:42.089Z,80.60
2019-01-24T17:12:10.660Z,80.50
2019-01-24T17:14:42.345Z,80.50
2019-01-24T17:17:11.000Z,80.20
2019-01-24T17:19:39.593Z,80.10
2019-01-24T17:22:07.954Z,79.10
2019-01-24T17:24:36.564Z,78.90
2019-01-24T17:27:06.180Z,78.60
2019-01-24T17:29:34.768Z,78.50
2019-01-24T17:32:03.389Z,78.50
2019-01-24T17:34:31.978Z,78.10
2019-01-24T17:37:00.559Z,78.20
2019-01-24T17:39:29.131Z,78.40
2019-01-24T17:41:57.699Z,78.30
2019-01-24T17:44:26.281Z,78.40
2019-01-24T17:46:54.862Z,78.40
2019-01-24T17:49:23.458Z,78.60
2019-01-24T17:51:52.027Z,78.80
2019-01-24T17:54:21.115Z,78.90
2019-01-24T17:56:49.695Z,79.10
2019-01-24T17:59:18.307Z,79.40
2019-01-24T18:01:47.091Z,79.90
2019-01-24T18:04:21.649Z,80.00
2019-01-24T18:06:46.140Z,80.70
2019-01-24T18:09:14.772Z,80.10
2019-01-24T18:11:43.371Z,79.90
2019-01-24T18:14:11.950Z,80.30
2019-01-24T18:16:40.545Z,79.80
2019-01-24T18:19:09.274Z,79.70
2019-01-24T18:21:39.301Z,79.70
2019-01-24T18:24:07.960Z,79.80
2019-01-24T18:26:36.554Z,80.30
2019-01-24T18:29:05.194Z,80.40
2019-01-24T18:31:33.793Z,80.20
2019-01-24T18:34:02.377Z,80.80
2019-01-24T18:36:30.981Z,80.90
2019-01-24T18:38:59.549Z,80.90
2019-01-24T18:41:28.137Z,81.20
2019-01-24T18:43:57.193Z,81.30
2019-01-24T18:46:25.792Z,81.20
2019-01-24T18:48:54.378Z,81.20
2019-01-24T18:51:23.101Z,82.10
2019-01-24T18:53:51.686Z,81.30
2019-01-24T18:56:20.278Z,81.60
2019-01-24T18:58:48.938Z,82.20
2019-01-24T19:01:17.832Z,81.60
2019-01-24T19:03:46.406Z,81.40
2019-01-24T19:06:15.184Z,81.10
2019-01-24T19:08:45.933Z,81.50
2019-01-24T19:11:14.127Z,81.50
2019-01-24T19:13:42.714Z,81.30
2019-01-24T19:16:11.314Z,81.40
2019-01-24T19:18:39.884Z,81.50
2019-01-24T19:21:08.489Z,81.70
2019-01-24T19:23:37.083Z,81.90
2019-01-24T19:26:05.689Z,81.80
2019-01-24T19:28:34.294Z,81.80
2019-01-24T19:31:02.922Z,81.90
2019-01-24T19:33:31.590Z,81.80
2019-01-24T19:36:00.589Z,82.20
2019-01-24T19:38:29.340Z,82.40
2019-01-24T19:40:57.934Z,82.60
2019-01-24T19:43:26.526Z,82.60
2019-01-24T19:45:55.102Z,82.70
2019-01-24T19:48:23.701Z,83.10
2019-01-24T19:50:52.368Z,83.10
2019-01-24T19:53:21.061Z,83.20
2019-01-24T19:55:49.658Z,83.40
2019-01-24T19:58:18.290Z,83.40
2019-01-24T20:00:46.905Z,83.50
2019-01-24T20:03:15.537Z,83.20
2019-01-24T20:05:44.101Z,83.20
2019-01-24T20:08:12.717Z,82.90
2019-01-24T20:10:41.316Z,82.60
2019-01-24T20:13:09.925Z,82.70
2019-01-24T20:15:38.503Z,82.60
2019-01-24T20:18:07.243Z,82.60
2019-01-24T20:20:37.597Z,82.70
2019-01-24T20:23:06.596Z,82.80
2019-01-24T20:25:35.187Z,82.90
2019-01-24T20:28:03.795Z,82.80
2019-01-24T20:30:32.378Z,82.70
2019-01-24T20:33:01.830Z,82.40
2019-01-24T20:35:33.270Z,82.40
2019-01-24T20:38:01.888Z,81.80
2019-01-24T20:40:30.487Z,81.60
2019-01-24T20:42:59.110Z,81.90
2019-01-24T20:45:29.502Z,81.90
2019-01-24T20:47:59.194Z,81.60
2019-01-24T20:50:28.716Z,81.80
2019-01-24T20:52:57.334Z,81.30
2019-01-24T20:55:25.910Z,81.60
2019-01-24T20:57:54.474Z,81.50
2019-01-24T21:00:23.110Z,81.30
2019-01-24T21:02:51.776Z,81.40
2019-01-24T21:05:21.301Z,81.40
2019-01-24T21:07:49.944Z,81.80
2019-01-24T21:10:20.727Z,82.00
2019-01-24T21:12:49.288Z,82.10
2019-01-24T21:15:18.195Z,82.30
2019-01-24T21:17:46.752Z,82.20
2019-01-24T21:20:17.527Z,82.00
2019-01-24T21:22:46.113Z,81.90
2019-01-24T21:25:15.918Z,81.70
2019-01-24T21:27:44.549Z,82.00
2019-01-24T21:30:21.314Z,81.80
2019-01-24T21:32:49.902Z,81.60
2019-01-24T21:35:18.523Z,81.20
2019-01-24T21:37:47.101Z,80.50
2019-01-24T21:40:16.961Z,80.40
2019-01-24T21:42:45.549Z,80.10
2019-01-24T21:45:17.086Z,79.50
2019-01-24T21:47:45.665Z,79.00
2019-01-24T21:50:16.616Z,77.80
2019-01-24T21:52:45.321Z,78.60
2019-01-24T21:55:14.898Z,78.90
2019-01-24T21:57:43.472Z,79.90
2019-01-24T22:00:13.981Z,79.30
2019-01-24T22:02:42.567Z,79.00
2019-01-24T22:05:11.369Z,79.20
2019-01-24T22:07:39.958Z,79.40
2019-01-24T22:10:10.604Z,80.00
2019-01-24T22:12:39.205Z,80.00
2019-01-24T22:15:10.542Z,80.00
2019-01-24T22:17:39.150Z,80.10
2019-01-24T22:20:08.288Z,80.40
2019-01-24T22:22:38.169Z,80.50
2019-01-24T22:25:08.969Z,80.30
2019-01-24T22:27:37.565Z,80.40
2019-01-24T22:30:10.785Z,80.50
2019-01-24T22:32:39.476Z,80.60
2019-01-24T22:35:08.321Z,80.90
2019-01-24T22:37:37.129Z,81.10
2019-01-24T22:40:06.154Z,81.60
2019-01-24T22:42:34.738Z,81.30
2019-01-24T22:45:03.711Z,81.50
2019-01-24T22:47:34.121Z,81.20
2019-01-24T22:50:05.250Z,81.10
2019-01-24T22:52:34.696Z,81.20
2019-01-24T22:55:03.342Z,81.60
2019-01-24T22:57:31.909Z,81.30
2019-01-24T23:00:00.932Z,81.70
2019-01-24T23:02:31.379Z,81.80
2019-01-24T23:05:00.046Z,82.00
2019-01-24T23:07:28.696Z,81.70
2019-01-24T23:09:57.350Z,81.70
2019-01-24T23:12:26.110Z,81.70
2019-01-24T23:14:54.849Z,81.90
2019-01-24T23:17:23.578Z,82.00
2019-01-24T23:19:52.287Z,82.00
2019-01-24T23:22:20.983Z,82.20
2019-01-24T23:24:49.714Z,82.30
2019-01-24T23:27:18.279Z,82.40
2019-01-24T23:29:46.996Z,82.40
2019-01-24T23:32:15.567Z,82.00
2019-01-24T23:34:44.161Z,82.20
2019-01-24T23:37:12.737Z,82.40
2019-01-24T23:39:42.307Z,82.20
2019-01-24T23:42:10.974Z,82.20
2019-01-24T23:44:39.678Z,81.90
2019-01-24T23:47:08.252Z,82.40
2019-01-24T23:49:37.071Z,82.40
2019-01-24T23:52:05.673Z,81.80
2019-01-24T23:54:36.832Z,82.00
2019-01-24T23:57:06.098Z,82.40
2019-01-24T23:59:35.175Z,82.70
